Medicine Hat Airport, Alberta

Past 24 Hour Conditions

This table is a summary of hourly weather conditions for the past 24 hours. This summary includes the following parameters: temperature, humidity, dew point, wind speed and direction, air pressure, visibility and/or wind chill and humidex.
Date / Time
(MDT)
Conditions Temp (°F) Humidity (%) Dew Point (°F) Wind (mph) Pressure (inches) Vis (mi) Humidex
29 August 2014
5:00 Mist 47   100 47 S 5 30.1 3 *
4:00 Mist 48 99 48 S 6 30.1 4 *
3:00 Clear 49 98 49 SSW 3 30.1 7 *
2:00 Clear 50 97 50 W 9 30.1 10 *
1:00 Clear 52 95 51 W 7 30.1 10 *
00:00 Cloudy 54 95 52 W 8 30.1 10 *
28 August 2014
23:00 Mostly Cloudy 54 95 52 WNW 9 30.1 10 *
22:00 Light Rain 55 94 53 WNW 6 30.1 10 *
21:00 Light Rainshower 55 90 52 N 2 30.1 6 *
20:00 Light Rainshower 55 89 52 N 5 30.1 6 *
19:00 Light Rainshower 55 93 53 N 11 gust 20 30.0 6 *
18:00 Thunderstorm with rainshowers 56 92 53 NNW 21 gust 34 30.0 4 *
17:00 Mostly Cloudy 70 58 55 NNW 17 gust 25 29.9 30 *
16:00 Mostly Cloudy 77   44 53 NNE 7 29.9 30 80
15:00 Mostly Cloudy 77   47 55 NE 8 29.9 30 81
14:00 Mostly Cloudy 75 50 56 NE 9 29.9 30 80
13:00 Mostly Cloudy 72 57 56 NW 8 29.9 15 77
12:00 Mostly Cloudy 68 65 56 N 2 29.9 15 *
11:00 Mostly Cloudy 66 70 56 NW 6 29.9 15 *
10:00 Mostly Cloudy 63 75 55 NW 8 29.9 15 *
9:00 Mostly Cloudy 61 81 55 WNW 5 29.9 15 *
8:00 Mostly Cloudy 57 86 53 NNW 3 29.9 30 *
7:00 Mostly Cloudy 56 89 53 W 9 29.9 30 *
6:00 Clear 56 81 51 SW 11 29.9 10 *
5:00 Clear 60 73 51 SSW 13 29.8 10 *
N/A
Not available
 ↑ 
Highest temperature
 ↓ 
Lowest temperature
*
Value not significant.

If you require additional historical weather information, please visit Climate Data Online.